createdAt,value
2023-01-28T00:07:53.268Z,1.90
2023-01-28T00:17:53.404Z,3.42
2023-01-28T00:27:53.331Z,0.95
2023-01-28T00:37:53.649Z,1.04
2023-01-28T00:47:54.459Z,2.08
2023-01-28T00:57:54.349Z,3.02
2023-01-28T01:07:54.375Z,3.49
2023-01-28T01:17:54.528Z,2.45
2023-01-28T01:27:54.348Z,2.72
2023-01-28T01:37:54.443Z,2.16
2023-01-28T01:47:54.490Z,0.47
2023-01-28T01:57:54.574Z,1.12
2023-01-28T02:07:55.031Z,2.71
2023-01-28T02:17:55.414Z,2.80
2023-01-28T02:27:55.470Z,2.80
2023-01-28T02:37:55.584Z,1.96
2023-01-28T02:47:58.703Z,1.03
2023-01-28T02:57:58.604Z,4.20
2023-01-28T03:07:58.451Z,2.62
2023-01-28T03:18:17.028Z,4.30
2023-01-28T03:28:36.403Z,2.62
2023-01-28T03:38:43.163Z,1.22
2023-01-28T03:48:45.047Z,3.76
2023-01-28T03:58:53.780Z,3.67
2023-01-28T04:09:13.959Z,4.23
2023-01-28T04:19:15.939Z,4.05
2023-01-28T04:29:16.693Z,0.28
2023-01-28T04:39:18.510Z,5.29
2023-01-28T04:49:26.315Z,8.05
2023-01-28T04:59:26.616Z,1.61
2023-01-28T05:09:26.628Z,4.76
2023-01-28T05:19:26.720Z,6.48
2023-01-28T05:29:27.619Z,3.91
2023-01-28T05:39:27.651Z,6.10
2023-01-28T05:49:35.359Z,5.24
2023-01-28T05:59:35.785Z,6.01
2023-01-28T06:09:36.084Z,5.16
2023-01-28T06:19:36.929Z,5.36
2023-01-28T06:29:36.650Z,4.12
2023-01-28T06:39:36.660Z,3.74
2023-01-28T06:49:36.680Z,6.63
2023-01-28T06:59:36.705Z,9.24
2023-01-28T07:09:36.736Z,6.45
2023-01-28T07:19:36.866Z,7.23
2023-01-28T07:29:36.699Z,7.81
2023-01-28T07:39:36.763Z,4.05
2023-01-28T07:49:38.683Z,8.29
2023-01-28T07:59:38.723Z,4.15
2023-01-28T08:09:38.711Z,7.15
2023-01-28T08:19:38.823Z,5.33
2023-01-28T08:29:38.739Z,4.85
2023-01-28T08:39:38.758Z,6.88
2023-01-28T08:49:38.891Z,7.38
2023-01-28T08:59:41.469Z,3.41
2023-01-28T09:09:41.812Z,6.72
2023-01-28T09:19:41.909Z,5.76
2023-01-28T09:29:41.828Z,6.83
2023-01-28T09:39:41.867Z,7.72
2023-01-28T09:49:41.880Z,5.09
2023-01-28T09:59:41.955Z,5.89
2023-01-28T10:09:42.060Z,5.30
2023-01-28T10:19:41.913Z,3.93
2023-01-28T10:29:43.839Z,4.62
2023-01-28T10:39:43.912Z,6.10
2023-01-28T10:49:43.940Z,5.61
2023-01-28T10:59:44.058Z,4.34
2023-01-28T11:09:43.969Z,4.15
2023-01-28T11:19:43.952Z,5.04
2023-01-28T11:29:44.071Z,4.35
2023-01-28T11:39:44.087Z,4.85
2023-01-28T11:49:43.994Z,3.96
2023-01-28T11:59:44.148Z,5.44
2023-01-28T12:09:44.032Z,5.94
2023-01-28T12:19:44.033Z,4.56
2023-01-28T12:29:46.007Z,2.38
2023-01-28T12:39:46.086Z,4.96
2023-01-28T12:49:46.349Z,3.97
2023-01-28T12:59:46.317Z,4.27
2023-01-28T13:09:49.438Z,6.45
2023-01-28T13:19:49.135Z,5.25
2023-01-28T13:29:49.682Z,2.88
2023-01-28T13:39:50.287Z,5.75
2023-01-28T13:49:50.248Z,5.15
2023-01-28T13:59:50.217Z,6.14
2023-01-28T14:09:50.162Z,6.14
2023-01-28T14:19:50.305Z,2.97
2023-01-28T14:29:50.287Z,5.84
2023-01-28T14:39:50.299Z,3.56
2023-01-28T14:49:50.279Z,5.04
2023-01-28T14:59:50.301Z,3.76
2023-01-28T15:09:50.222Z,5.83
2023-01-28T15:19:50.275Z,5.24
2023-01-28T15:29:50.522Z,3.85
2023-01-28T15:39:50.292Z,5.33
2023-01-28T15:49:50.398Z,15.18
2023-01-28T15:59:50.855Z,6.90
2023-01-28T16:09:51.270Z,6.89
2023-01-28T16:19:51.315Z,4.23
2023-01-28T16:29:51.349Z,5.31
2023-01-28T16:39:51.301Z,7.57
2023-01-28T16:49:51.426Z,4.62
2023-01-28T16:59:51.558Z,6.48
2023-01-28T17:09:51.452Z,7.25
2023-01-28T17:19:51.381Z,6.37
2023-01-28T17:29:51.404Z,6.17
2023-01-28T17:39:51.374Z,5.18
2023-01-28T17:49:51.450Z,8.21
2023-01-28T17:59:51.652Z,11.72
2023-01-28T18:09:53.774Z,8.59
2023-01-28T18:19:54.672Z,7.99
2023-01-28T18:29:57.151Z,8.47
2023-01-28T18:39:57.549Z,9.63
2023-01-28T18:49:57.508Z,8.85
2023-01-28T18:59:57.659Z,9.32
2023-01-28T19:09:57.562Z,11.84
2023-01-28T19:19:57.617Z,9.21
2023-01-28T19:29:57.532Z,11.43
2023-01-28T19:39:57.560Z,10.65
2023-01-28T19:49:57.616Z,10.84
2023-01-28T19:59:57.603Z,11.70
2023-01-28T20:09:57.566Z,13.14
2023-01-28T20:19:57.621Z,10.43
2023-01-28T20:29:57.598Z,11.19
2023-01-28T20:39:57.739Z,9.84
2023-01-28T20:49:57.595Z,10.02
2023-01-28T20:59:57.734Z,10.69
2023-01-28T21:09:57.745Z,14.72
2023-01-28T21:19:57.801Z,10.67
2023-01-28T21:29:57.709Z,11.62
2023-01-28T21:40:00.772Z,13.62
2023-01-28T21:50:00.735Z,15.24
2023-01-28T22:00:01.153Z,10.15
2023-01-28T22:10:01.957Z,12.54
2023-01-28T22:20:02.059Z,12.15
2023-01-28T22:30:01.754Z,13.67
2023-01-28T22:40:01.892Z,10.51
2023-01-28T22:50:01.847Z,10.12
2023-01-28T23:00:01.752Z,14.11
2023-01-28T23:10:01.924Z,12.11
2023-01-28T23:20:24.191Z,14.48
2023-01-28T23:30:24.848Z,16.09
2023-01-28T23:40:26.603Z,14.27
2023-01-28T23:50:26.803Z,12.27
